Time;durP1;ratioP1;P1;durP2;ratioP2;P2;SDS_P1;SDS_P2;PMS_P1;PMS_P2;Temp;Humidity;BMP_temperature;BMP_pressure;BME280_temperature;BME280_humidity;BME280_pressure;Samples;Min_cycle;Max_cycle;Signal;HPM_P1;HPM_P2
2021/08/05 00:01:45;;;;;;;;;;;18.70;92.00;;;;;;4316224;33;44264;-80
2021/08/05 00:04:18;;;;;;;;;;;18.70;92.00;;;;;;4314996;33;43689;-80
2021/08/05 00:06:47;;;;;;;;;;;18.70;92.10;;;;;;4315255;33;44410;-80
2021/08/05 00:09:17;;;;;;;;;;;18.70;92.10;;;;;;4316100;33;42955;-80
2021/08/05 00:11:48;;;;;;;;;;;18.70;92.10;;;;;;4314978;33;43485;-80
2021/08/05 00:14:20;;;;;;;;;;;18.70;92.10;;;;;;4315365;33;43916;-80
2021/08/05 00:16:51;;;;;;;;;;;18.70;92.10;;;;;;4316328;33;43694;-81
2021/08/05 00:19:18;;;;;;;;;;;18.70;92.10;;;;;;4314664;33;43824;-81
2021/08/05 00:21:47;;;;;;;;;;;18.60;92.10;;;;;;4315260;33;43941;-81
2021/08/05 00:24:17;;;;;;;;;;;18.60;92.10;;;;;;4314631;33;44020;-80
2021/08/05 00:26:47;;;;;;;;;;;18.70;92.20;;;;;;4315703;33;43607;-80
2021/08/05 00:29:20;;;;;;;;;;;18.70;92.20;;;;;;4315685;33;42843;-80
2021/08/05 00:31:47;;;;;;;;;;;18.60;92.10;;;;;;4314623;33;42862;-80
2021/08/05 00:34:20;;;;;;;;;;;18.60;92.10;;;;;;4316014;33;43397;-81
2021/08/05 00:36:52;;;;;;;;;;;18.60;92.20;;;;;;4315945;33;43472;-80
2021/08/05 00:39:24;;;;;;;;;;;18.60;92.20;;;;;;4316149;33;43871;-81
2021/08/05 00:41:56;;;;;;;;;;;18.60;92.20;;;;;;4316211;33;43870;-81
2021/08/05 00:44:24;;;;;;;;;;;18.60;92.20;;;;;;4315819;33;42978;-81
2021/08/05 00:46:51;;;;;;;;;;;18.60;92.20;;;;;;4314444;33;44552;-81
2021/08/05 00:49:26;;;;;;;;;;;18.60;92.20;;;;;;4314510;33;43970;-80
2021/08/05 00:51:56;;;;;;;;;;;18.60;92.30;;;;;;4315832;33;45973;-80
2021/08/05 00:54:26;;;;;;;;;;;18.60;92.20;;;;;;4315372;33;43485;-80
2021/08/05 00:56:56;;;;;;;;;;;18.60;92.20;;;;;;4314723;33;43874;-81
2021/08/05 00:59:25;;;;;;;;;;;18.50;92.10;;;;;;4314760;33;43706;-81
2021/08/05 01:02:12;;;;;;;;;;;18.60;92.50;;;;;;4314499;33;43954;-81
2021/08/05 01:04:39;;;;;;;;;;;18.50;92.20;;;;;;4315491;33;44980;-81
2021/08/05 01:07:10;;;;;;;;;;;18.60;92.20;;;;;;4314812;33;42314;-81
2021/08/05 01:09:49;;;;;;;;;;;18.50;92.20;;;;;;4315350;33;44142;-81
2021/08/05 01:12:29;;;;;;;;;;;18.50;92.20;;;;;;4314412;33;44271;-80
2021/08/05 01:15:16;;;;;;;;;;;18.50;92.20;;;;;;4315408;33;43774;-80
2021/08/05 01:17:48;;;;;;;;;;;18.50;92.20;;;;;;4315938;33;20482;-80
2021/08/05 01:20:20;;;;;;;;;;;18.50;92.30;;;;;;4315477;33;44079;-81
2021/08/05 01:22:47;;;;;;;;;;;18.50;92.30;;;;;;4315630;33;43333;-81
2021/08/05 01:25:26;;;;;;;;;;;18.50;92.30;;;;;;4315255;33;45132;-81
2021/08/05 01:27:59;;;;;;;;;;;18.50;92.30;;;;;;4314588;33;45173;-81
2021/08/05 01:30:35;;;;;;;;;;;18.50;92.30;;;;;;4314440;33;43760;-81
2021/08/05 01:33:08;;;;;;;;;;;18.50;92.30;;;;;;4317015;33;43400;-81
2021/08/05 01:35:38;;;;;;;;;;;18.50;92.40;;;;;;4317538;33;43547;-81
2021/08/05 01:38:08;;;;;;;;;;;18.50;92.40;;;;;;4318069;33;43875;-81
2021/08/05 01:40:41;;;;;;;;;;;18.50;92.40;;;;;;4317197;33;42854;-81
2021/08/05 01:43:11;;;;;;;;;;;18.50;92.40;;;;;;4317116;33;43794;-81
2021/08/05 01:45:40;;;;;;;;;;;18.50;92.40;;;;;;4316880;33;43304;-81
2021/08/05 01:48:10;;;;;;;;;;;18.50;92.40;;;;;;4317206;33;43093;-80
2021/08/05 01:50:38;;;;;;;;;;;18.50;92.40;;;;;;4318110;33;44213;-80
2021/08/05 01:53:05;;;;;;;;;;;18.50;92.40;;;;;;4317238;33;42863;-81
2021/08/05 01:55:33;;;;;;;;;;;18.50;92.40;;;;;;4316629;33;43504;-81
2021/08/05 01:58:06;;;;;;;;;;;18.50;92.40;;;;;;4317788;33;43270;-81
2021/08/05 02:00:35;;;;;;;;;;;18.50;92.50;;;;;;4317005;33;43032;-81
2021/08/05 02:03:03;;;;;;;;;;;18.40;92.50;;;;;;4317798;33;43994;-81
2021/08/05 02:05:54;;;;;;;;;;;18.40;92.50;;;;;;4316888;33;43118;-81
2021/08/05 02:08:30;;;;;;;;;;;18.40;92.50;;;;;;4313305;33;44168;-80
2021/08/05 02:10:58;;;;;;;;;;;18.40;92.50;;;;;;4318214;33;43223;-81
2021/08/05 02:13:28;;;;;;;;;;;18.40;92.50;;;;;;4317870;33;44594;-80
2021/08/05 02:16:00;;;;;;;;;;;18.40;92.50;;;;;;4317445;33;42378;-80
2021/08/05 02:18:30;;;;;;;;;;;18.40;92.50;;;;;;4317599;33;20005;-80
2021/08/05 02:20:58;;;;;;;;;;;18.40;92.50;;;;;;4316442;33;42712;-83
2021/08/05 02:23:29;;;;;;;;;;;18.40;92.50;;;;;;4317290;33;44395;-82
2021/08/05 02:26:00;;;;;;;;;;;18.40;92.50;;;;;;4316805;33;45168;-81
2021/08/05 02:28:34;;;;;;;;;;;18.40;92.60;;;;;;4317208;33;44049;-81
2021/08/05 02:31:07;;;;;;;;;;;18.40;92.60;;;;;;4316713;33;44554;-81
2021/08/05 02:33:34;;;;;;;;;;;18.40;92.60;;;;;;4316700;33;43991;-80
2021/08/05 02:36:05;;;;;;;;;;;18.40;92.60;;;;;;4316630;33;44105;-80
2021/08/05 02:38:34;;;;;;;;;;;18.40;92.60;;;;;;4315995;33;44027;-80
2021/08/05 02:41:05;;;;;;;;;;;18.40;92.60;;;;;;4316145;33;42901;-80
2021/08/05 02:43:35;;;;;;;;;;;18.40;92.60;;;;;;4316424;33;43890;-80
2021/08/05 02:46:05;;;;;;;;;;;18.30;92.60;;;;;;4317529;33;43189;-81
2021/08/05 02:48:39;;;;;;;;;;;18.40;92.70;;;;;;4317760;33;20010;-80
2021/08/05 02:51:09;;;;;;;;;;;18.40;92.70;;;;;;4316688;33;43865;-81
2021/08/05 02:53:37;;;;;;;;;;;18.40;92.70;;;;;;4317271;33;46035;-80
2021/08/05 02:56:04;;;;;;;;;;;18.40;93.00;;;;;;4316993;33;44625;-81
2021/08/05 02:58:34;;;;;;;;;;;18.30;92.70;;;;;;4315856;33;45394;-81
2021/08/05 03:01:01;;;;;;;;;;;18.40;92.70;;;;;;4315751;33;44121;-81
2021/08/05 03:03:31;;;;;;;;;;;18.30;92.70;;;;;;4315887;33;44223;-81
2021/08/05 03:06:01;;;;;;;;;;;18.30;92.70;;;;;;4317216;33;46085;-81
2021/08/05 03:08:30;;;;;;;;;;;18.30;92.70;;;;;;4316030;33;43416;-81
2021/08/05 03:11:00;;;;;;;;;;;18.30;92.80;;;;;;4315989;33;44996;-81
2021/08/05 03:13:33;;;;;;;;;;;18.30;92.80;;;;;;4315693;33;43892;-81
2021/08/05 03:16:05;;;;;;;;;;;18.30;92.80;;;;;;4316715;33;44120;-81
2021/08/05 03:18:34;;;;;;;;;;;18.30;92.80;;;;;;4316850;33;43915;-81
2021/08/05 03:21:07;;;;;;;;;;;18.30;92.80;;;;;;4317154;33;44174;-80
2021/08/05 03:23:34;;;;;;;;;;;18.30;92.80;;;;;;4315868;33;43806;-80
2021/08/05 03:26:01;;;;;;;;;;;18.30;92.80;;;;;;4316648;33;43103;-80
2021/08/05 03:28:33;;;;;;;;;;;18.30;92.80;;;;;;4316727;33;43736;-80
2021/08/05 03:31:05;;;;;;;;;;;18.30;92.90;;;;;;4315998;33;44219;-81
2021/08/05 03:33:35;;;;;;;;;;;18.30;92.90;;;;;;4315975;33;43449;-80
2021/08/05 03:36:05;;;;;;;;;;;18.30;92.90;;;;;;4316380;33;42325;-81
2021/08/05 03:38:34;;;;;;;;;;;18.30;92.90;;;;;;4316227;33;43351;-80
2021/08/05 03:41:05;;;;;;;;;;;18.30;92.90;;;;;;4316714;33;43973;-80
2021/08/05 03:43:33;;;;;;;;;;;18.30;92.90;;;;;;4316673;33;43488;-81
2021/08/05 03:46:09;;;;;;;;;;;18.30;92.90;;;;;;4315689;33;43886;-80
2021/08/05 03:48:37;;;;;;;;;;;18.30;93.00;;;;;;4315494;33;45768;-81
2021/08/05 03:51:10;;;;;;;;;;;18.30;93.00;;;;;;4316204;33;20006;-81
2021/08/05 03:53:40;;;;;;;;;;;18.30;93.00;;;;;;4315498;33;42401;-81
2021/08/05 03:56:10;;;;;;;;;;;18.20;93.00;;;;;;4315369;33;42938;-81
2021/08/05 03:58:42;;;;;;;;;;;18.20;93.00;;;;;;4315336;33;43928;-81
2021/08/05 04:01:13;;;;;;;;;;;18.20;93.00;;;;;;4315445;33;43544;-81
2021/08/05 04:03:40;;;;;;;;;;;18.20;93.00;;;;;;4315866;33;44123;-81
2021/08/05 04:06:15;;;;;;;;;;;18.20;93.00;;;;;;4315040;33;43974;-81
2021/08/05 04:08:48;;;;;;;;;;;18.20;93.00;;;;;;4315339;33;43971;-81
2021/08/05 04:11:17;;;;;;;;;;;18.20;93.00;;;;;;4315305;33;45125;-81
2021/08/05 04:13:53;;;;;;;;;;;18.20;93.00;;;;;;4314696;33;43549;-81
2021/08/05 04:16:20;;;;;;;;;;;18.20;93.10;;;;;;4314825;33;44924;-81
2021/08/05 04:18:55;;;;;;;;;;;18.20;93.10;;;;;;4314950;33;43345;-81
2021/08/05 04:21:28;;;;;;;;;;;18.20;93.10;;;;;;4315622;33;20410;-81
2021/08/05 04:24:00;;;;;;;;;;;18.20;93.10;;;;;;4314741;33;42593;-82
2021/08/05 04:26:33;;;;;;;;;;;18.20;93.10;;;;;;4316514;33;44195;-82
2021/08/05 04:29:00;;;;;;;;;;;18.20;93.10;;;;;;4315233;33;43331;-81
2021/08/05 04:31:30;;;;;;;;;;;18.20;93.10;;;;;;4314634;33;43029;-81
2021/08/05 04:34:02;;;;;;;;;;;18.20;93.10;;;;;;4315563;33;44140;-81
2021/08/05 04:36:32;;;;;;;;;;;18.20;93.20;;;;;;4316089;33;42736;-82
2021/08/05 04:39:04;;;;;;;;;;;18.20;93.20;;;;;;4316083;33;46039;-81
2021/08/05 04:41:40;;;;;;;;;;;18.10;93.20;;;;;;4314724;33;42759;-81
2021/08/05 04:44:12;;;;;;;;;;;18.10;93.20;;;;;;4315920;33;42246;-81
2021/08/05 04:46:45;;;;;;;;;;;18.10;93.20;;;;;;4315163;33;43348;-82
2021/08/05 04:49:15;;;;;;;;;;;18.10;93.20;;;;;;4315937;33;45046;-81
2021/08/05 04:51:42;;;;;;;;;;;18.10;93.30;;;;;;4316406;33;20064;-81
2021/08/05 04:54:10;;;;;;;;;;;18.10;93.30;;;;;;4314769;33;41941;-81
2021/08/05 04:56:43;;;;;;;;;;;18.10;93.30;;;;;;4315709;33;44892;-81
2021/08/05 04:59:10;;;;;;;;;;;18.10;93.30;;;;;;4315902;33;44597;-81
2021/08/05 05:01:39;;;;;;;;;;;18.10;93.30;;;;;;4315533;33;43599;-82
2021/08/05 05:04:07;;;;;;;;;;;18.10;93.30;;;;;;4315395;33;43454;-82
2021/08/05 05:06:37;;;;;;;;;;;18.10;93.30;;;;;;4317472;33;45701;-82
2021/08/05 05:09:04;;;;;;;;;;;18.10;93.30;;;;;;4318775;33;44329;-82
2021/08/05 05:11:37;;;;;;;;;;;18.10;93.30;;;;;;4318585;33;45741;-82
2021/08/05 05:14:04;;;;;;;;;;;18.10;93.30;;;;;;4318917;33;45113;-81
2021/08/05 05:16:34;;;;;;;;;;;18.10;93.30;;;;;;4317554;33;43882;-82
2021/08/05 05:19:04;;;;;;;;;;;18.10;93.30;;;;;;4317323;33;43053;-82
2021/08/05 05:21:34;;;;;;;;;;;18.10;93.40;;;;;;4317108;33;44169;-81
2021/08/05 05:24:04;;;;;;;;;;;18.10;93.40;;;;;;4317378;33;42896;-82
2021/08/05 05:26:52;;;;;;;;;;;18.10;93.40;;;;;;4317230;33;43020;-82
2021/08/05 05:29:19;;;;;;;;;;;18.10;93.40;;;;;;4318250;33;43429;-82
2021/08/05 05:31:49;;;;;;;;;;;18.10;93.40;;;;;;4318412;33;45155;-82
2021/08/05 05:34:22;;;;;;;;;;;18.10;93.50;;;;;;4317139;33;46000;-82
2021/08/05 05:36:49;;;;;;;;;;;18.00;93.40;;;;;;4318610;33;45633;-82
2021/08/05 05:39:16;;;;;;;;;;;18.00;93.50;;;;;;4316896;33;43187;-82
2021/08/05 05:41:50;;;;;;;;;;;18.00;93.50;;;;;;4317998;33;44297;-81
2021/08/05 05:44:23;;;;;;;;;;;18.10;93.50;;;;;;4317299;33;43983;-82
2021/08/05 05:46:52;;;;;;;;;;;18.00;93.50;;;;;;4317239;33;42954;-81
2021/08/05 05:49:22;;;;;;;;;;;18.10;93.60;;;;;;4316716;33;43866;-82
2021/08/05 05:51:52;;;;;;;;;;;18.00;93.60;;;;;;4317126;33;43909;-82
2021/08/05 05:54:25;;;;;;;;;;;18.10;93.60;;;;;;4317363;33;45311;-82
2021/08/05 05:56:52;;;;;;;;;;;18.10;94.00;;;;;;4317895;33;44276;-82
2021/08/05 05:59:22;;;;;;;;;;;18.00;93.60;;;;;;4317127;33;45331;-82
2021/08/05 06:01:58;;;;;;;;;;;18.00;93.70;;;;;;4316850;33;43245;-82
2021/08/05 06:04:28;;;;;;;;;;;18.10;93.70;;;;;;4318031;33;46022;-82
2021/08/05 06:07:01;;;;;;;;;;;18.00;93.70;;;;;;4316509;33;43481;-82
2021/08/05 06:09:31;;;;;;;;;;;18.00;93.80;;;;;;4316956;33;43179;-81
2021/08/05 06:11:58;;;;;;;;;;;18.00;93.80;;;;;;4316700;33;44116;-82
2021/08/05 06:14:28;;;;;;;;;;;18.00;93.80;;;;;;4316790;33;43468;-82
2021/08/05 06:17:00;;;;;;;;;;;18.00;93.80;;;;;;4316727;33;46185;-81
2021/08/05 06:19:27;;;;;;;;;;;18.00;93.80;;;;;;4317256;33;42474;-82
2021/08/05 06:21:54;;;;;;;;;;;18.00;93.90;;;;;;4317652;33;43529;-82
2021/08/05 06:24:29;;;;;;;;;;;18.00;93.80;;;;;;4318279;33;20370;-81
2021/08/05 06:27:07;;;;;;;;;;;18.00;93.80;;;;;;4317905;33;44238;-81
2021/08/05 06:29:37;;;;;;;;;;;18.00;93.80;;;;;;4316723;33;44058;-82
2021/08/05 06:32:10;;;;;;;;;;;18.00;93.90;;;;;;4316786;33;44149;-81
2021/08/05 06:34:45;;;;;;;;;;;18.00;93.90;;;;;;4316661;33;43406;-82
2021/08/05 06:37:15;;;;;;;;;;;18.00;93.90;;;;;;4317142;33;42846;-82
2021/08/05 06:39:42;;;;;;;;;;;18.00;94.00;;;;;;4317532;33;44086;-82
2021/08/05 06:42:12;;;;;;;;;;;18.00;94.00;;;;;;4315955;33;44063;-82
2021/08/05 06:44:45;;;;;;;;;;;18.00;94.00;;;;;;4316134;33;43929;-82
2021/08/05 06:47:14;;;;;;;;;;;18.00;94.00;;;;;;4317286;33;44064;-81
2021/08/05 06:49:43;;;;;;;;;;;18.00;94.00;;;;;;4316485;33;43265;-81
2021/08/05 06:52:18;;;;;;;;;;;18.00;94.10;;;;;;4316433;33;44053;-81
2021/08/05 06:54:51;;;;;;;;;;;18.00;94.10;;;;;;4318334;33;19998;-81
2021/08/05 06:57:21;;;;;;;;;;;18.10;94.10;;;;;;4316100;33;43481;-81
2021/08/05 07:00:00;;;;;;;;;;;18.00;94.10;;;;;;4317148;33;44180;-80
2021/08/05 07:02:27;;;;;;;;;;;18.00;94.10;;;;;;4316850;33;43539;-81
2021/08/05 07:04:56;;;;;;;;;;;18.00;94.10;;;;;;4316774;33;44350;-82
2021/08/05 07:07:26;;;;;;;;;;;18.00;94.10;;;;;;4316991;33;43502;-81
2021/08/05 07:10:05;;;;;;;;;;;18.00;94.20;;;;;;4316225;33;45067;-81
2021/08/05 07:12:38;;;;;;;;;;;18.00;94.20;;;;;;4316997;33;43823;-81
2021/08/05 07:15:10;;;;;;;;;;;18.00;94.20;;;;;;4317041;33;44252;-81
2021/08/05 07:17:44;;;;;;;;;;;18.00;94.20;;;;;;4316576;33;42878;-81
2021/08/05 07:20:22;;;;;;;;;;;18.00;94.20;;;;;;4316647;33;42652;-80
2021/08/05 07:22:51;;;;;;;;;;;18.00;94.20;;;;;;4317146;33;43212;-80
2021/08/05 07:25:18;;;;;;;;;;;18.10;94.30;;;;;;4316723;33;19998;-80
2021/08/05 07:27:49;;;;;;;;;;;18.10;94.30;;;;;;4316877;33;44227;-80
2021/08/05 07:30:19;;;;;;;;;;;18.10;94.30;;;;;;4316636;33;43470;-80
2021/08/05 07:32:46;;;;;;;;;;;18.00;94.30;;;;;;4316559;33;42723;-81
2021/08/05 07:35:19;;;;;;;;;;;18.10;94.30;;;;;;4316590;33;42878;-80
2021/08/05 07:37:48;;;;;;;;;;;18.10;94.30;;;;;;4315874;33;44026;-80
2021/08/05 07:40:18;;;;;;;;;;;18.10;94.30;;;;;;4315711;33;44009;-80
2021/08/05 07:42:50;;;;;;;;;;;18.10;94.30;;;;;;4316221;33;43776;-80
2021/08/05 07:45:20;;;;;;;;;;;18.10;94.30;;;;;;4315405;33;42873;-80
2021/08/05 07:47:56;;;;;;;;;;;18.10;94.30;;;;;;4315735;33;43583;-80
2021/08/05 07:50:23;;;;;;;;;;;18.10;94.20;;;;;;4315854;33;43906;-80
2021/08/05 07:52:50;;;;;;;;;;;18.10;94.20;;;;;;4316583;33;42879;-80
2021/08/05 07:55:17;;;;;;;;;;;18.10;94.20;;;;;;4315510;33;46046;-80
2021/08/05 07:57:44;;;;;;;;;;;18.10;94.10;;;;;;4316034;33;43903;-80
2021/08/05 08:00:19;;;;;;;;;;;18.10;94.10;;;;;;4316598;33;43522;-80
2021/08/05 08:02:46;;;;;;;;;;;18.10;94.10;;;;;;4316247;33;43915;-80
2021/08/05 08:05:14;;;;;;;;;;;18.10;94.10;;;;;;4316032;33;43557;-80
2021/08/05 08:07:45;;;;;;;;;;;18.20;94.10;;;;;;4314887;33;44039;-81
2021/08/05 08:10:15;;;;;;;;;;;18.20;94.10;;;;;;4315104;33;43750;-80
2021/08/05 08:12:45;;;;;;;;;;;18.20;94.10;;;;;;4315262;33;43217;-80
2021/08/05 08:15:15;;;;;;;;;;;18.20;94.00;;;;;;4315870;33;43301;-81
2021/08/05 08:17:50;;;;;;;;;;;18.20;94.00;;;;;;4316125;33;42322;-81
2021/08/05 08:20:17;;;;;;;;;;;18.20;94.00;;;;;;4314767;33;43006;-81
2021/08/05 08:22:44;;;;;;;;;;;18.20;94.00;;;;;;4314737;33;43598;-81
2021/08/05 08:25:12;;;;;;;;;;;18.20;93.90;;;;;;4314696;33;44195;-81
2021/08/05 08:27:42;;;;;;;;;;;18.20;93.90;;;;;;4315351;33;20009;-80
2021/08/05 08:30:13;;;;;;;;;;;18.20;93.90;;;;;;4316100;33;43594;-80
2021/08/05 08:32:43;;;;;;;;;;;18.20;93.90;;;;;;4314905;33;43212;-80
2021/08/05 08:35:18;;;;;;;;;;;18.20;93.90;;;;;;4314958;33;45062;-81
2021/08/05 08:37:45;;;;;;;;;;;18.20;93.90;;;;;;4314534;33;42154;-81
2021/08/05 08:40:17;;;;;;;;;;;18.30;93.90;;;;;;4314061;33;42669;-81
2021/08/05 08:42:44;;;;;;;;;;;18.30;93.90;;;;;;4315820;33;43349;-81
2021/08/05 08:45:16;;;;;;;;;;;18.30;93.80;;;;;;4316077;33;43913;-81
2021/08/05 08:47:46;;;;;;;;;;;18.20;93.70;;;;;;4315008;33;43637;-81
2021/08/05 08:50:22;;;;;;;;;;;18.30;93.80;;;;;;4315748;33;44339;-81
2021/08/05 08:52:50;;;;;;;;;;;18.30;93.70;;;;;;4316008;33;46031;-81
2021/08/05 08:55:17;;;;;;;;;;;18.30;93.70;;;;;;4315043;33;43926;-81
2021/08/05 08:57:44;;;;;;;;;;;18.30;93.70;;;;;;4316264;33;20359;-81
2021/08/05 09:00:12;;;;;;;;;;;18.30;93.70;;;;;;4314781;33;44374;-81
2021/08/05 09:02:40;;;;;;;;;;;18.30;93.60;;;;;;4314321;33;43799;-82
2021/08/05 09:05:08;;;;;;;;;;;18.30;93.60;;;;;;4316018;33;42573;-82
2021/08/05 09:07:37;;;;;;;;;;;18.30;93.70;;;;;;4315404;33;43850;-82
2021/08/05 09:10:05;;;;;;;;;;;18.40;93.70;;;;;;4315762;33;45568;-81
2021/08/05 09:12:32;;;;;;;;;;;18.40;93.70;;;;;;4315275;33;45814;-81
2021/08/05 09:14:59;;;;;;;;;;;18.40;93.70;;;;;;4315365;33;43777;-80
2021/08/05 09:17:28;;;;;;;;;;;18.40;93.60;;;;;;4315328;33;42235;-80
2021/08/05 09:19:59;;;;;;;;;;;18.40;93.60;;;;;;4314343;33;43101;-81
2021/08/05 09:22:43;;;;;;;;;;;18.40;93.60;;;;;;4315818;33;44097;-81
2021/08/05 09:25:23;;;;;;;;;;;18.40;93.60;;;;;;4315699;33;45051;-81
2021/08/05 09:27:54;;;;;;;;;;;18.40;93.60;;;;;;4316281;33;20010;-81
2021/08/05 09:30:31;;;;;;;;;;;18.40;93.60;;;;;;4316050;33;43901;-80
2021/08/05 09:33:12;;;;;;;;;;;18.40;93.50;;;;;;4314687;33;43551;-81
2021/08/05 09:35:40;;;;;;;;;;;18.40;93.50;;;;;;4315236;33;44279;-81
2021/08/05 09:38:13;;;;;;;;;;;18.40;93.40;;;;;;4315501;33;44805;-80
2021/08/05 09:40:42;;;;;;;;;;;18.50;93.40;;;;;;4315678;33;43020;-80
2021/08/05 09:43:12;;;;;;;;;;;18.50;93.40;;;;;;4315203;33;44301;-80
2021/08/05 09:45:42;;;;;;;;;;;18.50;93.40;;;;;;4314541;33;44747;-80
2021/08/05 09:48:15;;;;;;;;;;;18.50;93.40;;;;;;4314334;33;44525;-81
2021/08/05 09:50:42;;;;;;;;;;;18.50;93.40;;;;;;4314768;33;44873;-81
2021/08/05 09:53:14;;;;;;;;;;;18.50;93.40;;;;;;4316329;33;44344;-80
2021/08/05 09:55:43;;;;;;;;;;;18.50;93.40;;;;;;4317258;33;44353;-81
2021/08/05 09:58:19;;;;;;;;;;;18.60;93.30;;;;;;4318498;33;20474;-80
2021/08/05 10:01:10;;;;;;;;;;;18.50;93.30;;;;;;4317298;33;45012;-80
2021/08/05 10:03:40;;;;;;;;;;;18.60;93.30;;;;;;4317584;33;44143;-80
2021/08/05 10:06:18;;;;;;;;;;;18.60;93.30;;;;;;4318308;33;44210;-80
2021/08/05 10:08:48;;;;;;;;;;;18.60;93.30;;;;;;4318082;33;44219;-80
2021/08/05 10:11:17;;;;;;;;;;;18.60;93.30;;;;;;4317668;33;42830;-80
2021/08/05 10:13:50;;;;;;;;;;;18.60;93.30;;;;;;4317745;33;44847;-80
2021/08/05 10:16:37;;;;;;;;;;;18.60;93.40;;;;;;4316220;33;43311;-80
2021/08/05 10:19:16;;;;;;;;;;;18.60;93.30;;;;;;4316811;33;42942;-80
2021/08/05 10:21:48;;;;;;;;;;;18.60;93.30;;;;;;4316858;33;44154;-81
2021/08/05 10:24:21;;;;;;;;;;;18.60;93.20;;;;;;4317872;33;43146;-81
2021/08/05 10:26:50;;;;;;;;;;;18.70;93.30;;;;;;4316853;33;46209;-80
2021/08/05 10:29:21;;;;;;;;;;;18.70;93.30;;;;;;4317619;33;20045;-80
2021/08/05 10:31:51;;;;;;;;;;;18.60;93.30;;;;;;4317698;33;42846;-81
2021/08/05 10:34:21;;;;;;;;;;;18.60;93.30;;;;;;4316873;33;43759;-82
2021/08/05 10:36:51;;;;;;;;;;;18.60;93.30;;;;;;4316829;33;43893;-81
2021/08/05 10:39:21;;;;;;;;;;;18.70;93.30;;;;;;4316540;33;44066;-81
2021/08/05 10:41:56;;;;;;;;;;;18.70;93.30;;;;;;4317644;33;43857;-81
2021/08/05 10:44:27;;;;;;;;;;;18.70;93.30;;;;;;4317618;33;44825;-81
2021/08/05 10:47:02;;;;;;;;;;;18.70;93.30;;;;;;4317513;33;45020;-81
2021/08/05 10:49:35;;;;;;;;;;;18.70;93.30;;;;;;4317721;33;43142;-81
2021/08/05 10:52:22;;;;;;;;;;;18.70;93.30;;;;;;4316475;33;44660;-81
2021/08/05 10:54:52;;;;;;;;;;;18.70;93.30;;;;;;4316745;33;42621;-81
2021/08/05 10:57:23;;;;;;;;;;;18.70;93.20;;;;;;4317461;33;44084;-82
2021/08/05 11:00:00;;;;;;;;;;;18.70;93.20;;;;;;4316299;33;43196;-81
2021/08/05 11:02:46;;;;;;;;;;;18.70;93.20;;;;;;4315795;33;44651;-82
2021/08/05 11:05:23;;;;;;;;;;;18.70;93.20;;;;;;4316772;33;45395;-81
2021/08/05 11:08:13;;;;;;;;;;;18.70;93.20;;;;;;4316366;33;43569;-82
2021/08/05 11:10:46;;;;;;;;;;;18.70;93.20;;;;;;4310821;33;43793;-81
2021/08/05 11:13:24;;;;;;;;;;;18.70;93.20;;;;;;4315776;33;42780;-81
2021/08/05 11:16:02;;;;;;;;;;;18.70;93.20;;;;;;4316109;33;44211;-82
2021/08/05 11:18:34;;;;;;;;;;;18.80;93.20;;;;;;4315971;33;44137;-82
2021/08/05 11:21:04;;;;;;;;;;;18.80;93.20;;;;;;4316764;33;44171;-82
2021/08/05 11:23:34;;;;;;;;;;;18.80;93.20;;;;;;4315964;33;42771;-81
2021/08/05 11:26:08;;;;;;;;;;;18.80;93.20;;;;;;4316053;33;43276;-81
2021/08/05 11:28:48;;;;;;;;;;;18.90;93.30;;;;;;4315776;33;45561;-81
2021/08/05 11:31:30;;;;;;;;;;;18.90;93.20;;;;;;4317426;33;19990;-81
2021/08/05 11:34:09;;;;;;;;;;;18.90;93.20;;;;;;4316470;33;42286;-81
2021/08/05 11:36:42;;;;;;;;;;;19.00;93.20;;;;;;4315746;33;43836;-81
2021/08/05 11:39:21;;;;;;;;;;;19.00;93.20;;;;;;4315394;33;42870;-82
2021/08/05 11:41:48;;;;;;;;;;;19.10;93.10;;;;;;4315749;33;42990;-83
2021/08/05 11:44:23;;;;;;;;;;;19.10;93.00;;;;;;4315383;33;42675;-81
2021/08/05 11:47:11;;;;;;;;;;;19.10;93.00;;;;;;4316172;33;44141;-82
2021/08/05 11:50:12;;;;;;;;;;;19.10;93.00;;;;;;4316706;33;44053;-82
2021/08/05 11:52:47;;;;;;;;;;;19.20;92.80;;;;;;4316671;33;44042;-81
2021/08/05 11:55:20;;;;;;;;;;;19.30;92.80;;;;;;4315679;33;43834;-82
2021/08/05 11:58:03;;;;;;;;;;;19.30;92.70;;;;;;4315029;33;43091;-82
2021/08/05 12:00:40;;;;;;;;;;;19.30;92.70;;;;;;4315385;33;43196;-81
2021/08/05 12:03:11;;;;;;;;;;;19.40;92.70;;;;;;4314794;33;43316;-81
2021/08/05 12:05:42;;;;;;;;;;;19.30;92.60;;;;;;4315128;33;43950;-81
2021/08/05 12:08:15;;;;;;;;;;;19.30;92.60;;;;;;4314784;33;43088;-81
2021/08/05 12:10:42;;;;;;;;;;;19.30;92.70;;;;;;4316581;33;43867;-82
2021/08/05 12:13:19;;;;;;;;;;;19.40;92.70;;;;;;4316627;33;45196;-81
2021/08/05 12:15:53;;;;;;;;;;;19.30;92.70;;;;;;4316170;33;44819;-81
2021/08/05 12:18:26;;;;;;;;;;;19.40;92.70;;;;;;4315296;33;43577;-81
2021/08/05 12:21:15;;;;;;;;;;;19.40;92.70;;;;;;4315146;33;41381;-81
2021/08/05 12:23:53;;;;;;;;;;;19.40;93.10;;;;;;4315074;33;42820;-81
2021/08/05 12:26:35;;;;;;;;;;;19.40;92.80;;;;;;4315053;33;42685;-81
2021/08/05 12:29:16;;;;;;;;;;;19.40;92.70;;;;;;4316371;33;43925;-82
2021/08/05 12:31:46;;;;;;;;;;;19.40;92.70;;;;;;4316761;33;20065;-81
2021/08/05 12:34:18;;;;;;;;;;;19.40;92.70;;;;;;4315919;33;42726;-81
2021/08/05 12:36:49;;;;;;;;;;;19.40;92.70;;;;;;4314912;33;42811;-81
2021/08/05 12:39:23;;;;;;;;;;;19.40;92.70;;;;;;4315722;33;43403;-82
2021/08/05 12:41:55;;;;;;;;;;;19.50;92.70;;;;;;4315981;33;43511;-82
2021/08/05 12:44:35;;;;;;;;;;;19.50;92.70;;;;;;4314560;33;42783;-81
2021/08/05 12:47:05;;;;;;;;;;;19.50;92.70;;;;;;4316117;33;43864;-81
2021/08/05 12:49:39;;;;;;;;;;;19.50;92.70;;;;;;4315873;33;44096;-86
2021/08/05 12:52:06;;;;;;;;;;;19.60;92.70;;;;;;4314900;33;42011;-80
2021/08/05 12:54:38;;;;;;;;;;;19.50;92.70;;;;;;4315729;33;43128;-80
2021/08/05 12:57:14;;;;;;;;;;;19.60;92.70;;;;;;4314828;33;43837;-80
2021/08/05 12:59:46;;;;;;;;;;;19.60;92.70;;;;;;4315415;33;44042;-80
2021/08/05 13:02:14;;;;;;;;;;;19.60;92.70;;;;;;4316635;33;20380;-80
2021/08/05 13:04:45;;;;;;;;;;;19.70;92.70;;;;;;4315851;33;43466;-80
2021/08/05 13:07:17;;;;;;;;;;;19.70;92.60;;;;;;4315940;33;43909;-80
2021/08/05 13:09:53;;;;;;;;;;;19.70;92.60;;;;;;4315506;33;43491;-80
2021/08/05 13:12:22;;;;;;;;;;;19.80;92.50;;;;;;4314589;33;42852;-80
2021/08/05 13:14:55;;;;;;;;;;;19.80;92.60;;;;;;4315689;33;44333;-81
2021/08/05 13:17:28;;;;;;;;;;;19.80;92.50;;;;;;4315258;33;44926;-85
2021/08/05 13:20:01;;;;;;;;;;;19.80;92.50;;;;;;4314993;33;45710;-82
2021/08/05 13:22:52;;;;;;;;;;;19.90;92.50;;;;;;4315458;33;44108;-81
2021/08/05 13:25:24;;;;;;;;;;;19.90;92.50;;;;;;4310769;33;44108;-81
2021/08/05 13:28:10;;;;;;;;;;;19.90;92.50;;;;;;4316050;33;42933;-82
2021/08/05 13:30:43;;;;;;;;;;;19.90;92.40;;;;;;4317331;33;43232;-81
2021/08/05 13:33:29;;;;;;;;;;;19.90;92.40;;;;;;4318236;33;20065;-80
2021/08/05 13:35:57;;;;;;;;;;;19.90;92.40;;;;;;4317400;33;44195;-81
2021/08/05 13:38:24;;;;;;;;;;;20.00;92.40;;;;;;4316931;33;43005;-81
2021/08/05 13:40:55;;;;;;;;;;;20.00;92.40;;;;;;4317757;33;43057;-83
2021/08/05 13:43:22;;;;;;;;;;;20.00;92.40;;;;;;4317535;33;43470;-80
2021/08/05 13:45:49;;;;;;;;;;;20.00;92.40;;;;;;4316796;33;45965;-80
2021/08/05 13:48:17;;;;;;;;;;;20.00;92.40;;;;;;4317162;33;43203;-81
2021/08/05 13:50:44;;;;;;;;;;;20.00;92.40;;;;;;4318357;33;43443;-80
2021/08/05 13:53:13;;;;;;;;;;;20.10;92.30;;;;;;4317908;33;44891;-80
2021/08/05 13:55:41;;;;;;;;;;;20.10;92.30;;;;;;4318310;33;43470;-82
2021/08/05 13:58:10;;;;;;;;;;;20.10;92.30;;;;;;4316762;33;46094;-80
2021/08/05 14:00:38;;;;;;;;;;;20.10;92.30;;;;;;4317816;33;42185;-81
2021/08/05 14:03:05;;;;;;;;;;;20.10;92.20;;;;;;4317548;33;45012;-80
2021/08/05 14:05:33;;;;;;;;;;;20.10;92.30;;;;;;4317231;33;43117;-81
2021/08/05 14:08:00;;;;;;;;;;;20.10;92.20;;;;;;4316411;33;45887;-81
2021/08/05 14:10:27;;;;;;;;;;;20.20;92.20;;;;;;4316971;33;44732;-81
2021/08/05 14:12:54;;;;;;;;;;;20.20;92.20;;;;;;4316835;33;43870;-81
2021/08/05 14:15:21;;;;;;;;;;;20.20;92.20;;;;;;4317107;33;43986;-81
2021/08/05 14:17:48;;;;;;;;;;;20.30;92.20;;;;;;4317758;33;42594;-81
2021/08/05 14:20:16;;;;;;;;;;;20.30;92.20;;;;;;4317290;33;44274;-81
2021/08/05 14:22:43;;;;;;;;;;;20.30;92.20;;;;;;4317398;33;44258;-81
2021/08/05 14:25:11;;;;;;;;;;;20.40;92.50;;;;;;4316403;33;44230;-81
2021/08/05 14:27:38;;;;;;;;;;;20.40;92.20;;;;;;4317935;33;43452;-80
2021/08/05 14:30:05;;;;;;;;;;;20.40;92.20;;;;;;4317746;33;43105;-81
2021/08/05 14:32:33;;;;;;;;;;;20.40;92.10;;;;;;4317723;33;44216;-81
2021/08/05 14:35:00;;;;;;;;;;;20.50;92.10;;;;;;4316201;33;44387;-81
2021/08/05 14:37:27;;;;;;;;;;;20.50;92.10;;;;;;4316535;33;43591;-81
2021/08/05 14:39:54;;;;;;;;;;;20.50;91.90;;;;;;4316363;33;44187;-81
2021/08/05 14:42:22;;;;;;;;;;;20.50;91.90;;;;;;4317141;33;43519;-80